Terminal Aerodrome Forecast
Issued by NWS Grand Forks, ND

Home | Current Version | Previous Version | Text Only | Print | Product List | Glossary Off
Versions: 1 2 3 4 5 6 7 8 9 10 11 12 13 14 15 16 17

000
FTUS43 KFGF 290600 AAA
TAFGFK
TAF AMD
KGFK 290653Z 2907/3006 32010KT P6SM SCT025 OVC035
     FM291800 19007KT P6SM SCT035 BKN250
     FM300000 16013KT P6SM BKN040=

USA.gov is the U.S. government's official web portal to all federal, state and local government web resources and services.